KBRO/BRO METAR and TAF weather

Enter ICAO airport designator
Station Type Date Time Source
KBRO METAR 2019/10/16 18:53 UTC NOAA

KBRO 161853Z 36011G18KT 340V040 10SM FEW049 BKN060 32/19 A2996 RMK AO2 SLP143 T03220194


Station Type Date Time Source
KBRO Decoded METAR 2019/10/16 18:53 UTC NOAA

BROWNSVILLE/SOUTH PADRE IS, TX, United States (KBRO) 25-54N 97-25W 5M
Oct 16, 2019 - 02:53 PM EDT / 2019.10.16 1853 UTC
Wind: from the N (360 degrees) at 13 MPH (11 KT) gusting to 21 MPH (18 KT) (direction variable):0
Visibility: 10 mile(s):0
Sky conditions: mostly cloudy
Temperature: 90.0 F (32.2 C)
Dew Point: 66.9 F (19.4 C)
Relative Humidity: 46%
Pressure (altimeter): 29.96 in. Hg (1014 hPa)
ob: KBRO 161853Z 36011G18KT 340V040 10SM FEW049 BKN060 32/19 A2996 RMK AO2 SLP143 T03220194
cycle: 19

Station Type Date Time Source
KBRO TAF 2019/10/16 18:36 UTC NOAA

TAF KBRO 161733Z 1618/1718 01010G16KT P6SM FEW025 SCT050
FM170200 35013G18KT P6SM VCSH OVC020

Example: see airport list